Time;durP1;ratioP1;P1;durP2;ratioP2;P2;SDS_P1;SDS_P2;PMS_P1;PMS_P2;Temp;Humidity;BMP_temperature;BMP_pressure;BME280_temperature;BME280_humidity;BME280_pressure;Samples;Min_cycle;Max_cycle;Signal;HPM_P1;HPM_P2
2023/06/08 00:00:41;;;;;;;13.57;11.10;;;;;;;;;;758515;185;905176;-65
2023/06/08 00:03:04;;;;;;;15.80;10.90;;;;;;;;;;752781;185;818308;-67
2023/06/08 00:05:31;;;;;;;18.13;12.17;;;;;;;;;;751643;185;818872;-62
2023/06/08 00:07:56;;;;;;;16.17;13.57;;;;;;;;;;756913;185;925200;-62
2023/06/08 00:10:21;;;;;;;16.37;12.93;;;;;;;;;;752781;185;819258;-65
2023/06/08 00:12:47;;;;;;;21.27;12.57;;;;;;;;;;747359;184;919418;-62
2023/06/08 00:15:13;;;;;;;17.97;14.00;;;;;;;;;;760742;183;919421;-62
2023/06/08 00:17:39;;;;;;;15.90;13.63;;;;;;;;;;746808;183;918880;-65
2023/06/08 00:20:08;;;;;;;16.70;14.20;;;;;;;;;;752682;183;817371;-62
2023/06/08 00:22:36;;;;;;;19.27;15.10;;;;;;;;;;752012;184;819212;-65
2023/06/08 00:24:57;;;;;;;19.33;15.57;;;;;;;;;;746823;186;816750;-62
2023/06/08 00:27:23;;;;;;;18.57;15.73;;;;;;;;;;743004;186;919016;-62
2023/06/08 00:29:49;;;;;;;21.17;16.20;;;;;;;;;;749984;184;919739;-66
2023/06/08 00:32:15;;;;;;;21.55;16.45;;;;;;;;;;755461;185;915929;-62
2023/06/08 00:34:41;;;;;;;40.23;16.10;;;;;;;;;;758433;184;814783;-64
2023/06/08 00:37:06;;;;;;;50.10;18.23;;;;;;;;;;751084;185;917496;-62
2023/06/08 00:39:32;;;;;;;25.83;14.63;;;;;;;;;;765823;183;915805;-61
2023/06/08 00:41:58;;;;;;;58.03;16.90;;;;;;;;;;756814;184;917899;-62
2023/06/08 00:44:24;;;;;;;23.50;16.60;;;;;;;;;;755757;184;918215;-61
2023/06/08 00:46:50;;;;;;;31.53;17.83;;;;;;;;;;753650;183;922316;-63
2023/06/08 00:49:30;;;;;;;87.23;18.97;;;;;;;;;;758011;186;917780;-66
2023/06/08 00:51:55;;;;;;;198.37;19.50;;;;;;;;;;723048;190;1143914;-75
2023/06/08 00:54:24;;;;;;;221.27;21.03;;;;;;;;;;744389;184;915018;-75
2023/06/08 00:56:48;;;;;;;208.03;20.73;;;;;;;;;;754161;179;816501;-75
2023/06/08 00:59:14;;;;;;;121.20;16.53;;;;;;;;;;769498;180;815896;-75
2023/06/08 01:01:40;;;;;;;177.53;19.20;;;;;;;;;;765861;174;815936;-74
2023/06/08 01:04:05;;;;;;;79.57;15.93;;;;;;;;;;754132;179;927933;-75
2023/06/08 01:06:33;;;;;;;82.30;17.17;;;;;;;;;;753453;184;918065;-75
2023/06/08 01:09:02;;;;;;;82.90;16.07;;;;;;;;;;754837;185;909280;-75
2023/06/08 01:11:28;;;;;;;75.47;14.53;;;;;;;;;;761404;175;916594;-74
2023/06/08 01:13:57;;;;;;;61.05;13.65;;;;;;;;;;755668;184;953614;-75
2023/06/08 01:16:24;;;;;;;52.13;14.57;;;;;;;;;;760610;183;816911;-75
2023/06/08 01:18:49;;;;;;;32.80;13.43;;;;;;;;;;754080;183;911560;-75
2023/06/08 01:21:31;;;;;;;35.30;14.90;;;;;;;;;;757757;172;919362;-75
2023/06/08 01:24:02;;;;;;;27.80;14.83;;;;;;;;;;756962;175;917387;-75
2023/06/08 01:26:28;;;;;;;23.50;14.00;;;;;;;;;;761145;182;919282;-74
2023/06/08 01:28:55;;;;;;;34.40;15.80;;;;;;;;;;761048;179;906668;-78
2023/06/08 01:31:19;;;;;;;19.87;14.20;;;;;;;;;;742255;183;1018020;-78
2023/06/08 01:33:45;;;;;;;19.10;14.30;;;;;;;;;;732735;188;915308;-78
2023/06/08 01:36:11;;;;;;;19.10;13.90;;;;;;;;;;735456;188;943256;-77
2023/06/08 01:38:39;;;;;;;17.47;14.70;;;;;;;;;;734637;187;932279;-79
2023/06/08 01:41:05;;;;;;;18.12;15.40;;;;;;;;;;728926;188;1029007;-79
2023/06/08 01:43:31;;;;;;;18.62;14.43;;;;;;;;;;740106;189;941339;-80
2023/06/08 01:45:57;;;;;;;20.00;13.40;;;;;;;;;;734819;187;908660;-79
2023/06/08 01:48:23;;;;;;;26.40;17.17;;;;;;;;;;733001;191;1020249;-80
2023/06/08 01:50:53;;;;;;;19.83;15.68;;;;;;;;;;737941;191;1271929;-79
2023/06/08 01:53:19;;;;;;;16.67;14.87;;;;;;;;;;738192;187;978020;-79
2023/06/08 01:55:45;;;;;;;22.63;15.80;;;;;;;;;;734356;187;913821;-79
2023/06/08 01:58:11;;;;;;;19.40;15.73;;;;;;;;;;732280;188;976578;-78
2023/06/08 02:00:37;;;;;;;18.20;14.50;;;;;;;;;;738720;191;868127;-79
2023/06/08 02:03:03;;;;;;;19.50;16.77;;;;;;;;;;735820;188;914266;-79
2023/06/08 02:05:28;;;;;;;17.83;14.17;;;;;;;;;;733544;187;919103;-78
2023/06/08 02:07:55;;;;;;;22.50;16.37;;;;;;;;;;739680;187;913090;-78
2023/06/08 02:10:22;;;;;;;22.67;16.40;;;;;;;;;;733482;189;915644;-79
2023/06/08 02:12:46;;;;;;;20.80;16.50;;;;;;;;;;735102;187;911600;-80
2023/06/08 02:15:12;;;;;;;20.10;15.60;;;;;;;;;;734876;187;981253;-78
2023/06/08 02:17:38;;;;;;;22.10;16.27;;;;;;;;;;735362;187;918173;-79
2023/06/08 02:20:06;;;;;;;18.33;14.47;;;;;;;;;;733468;186;1048954;-79
2023/06/08 02:22:30;;;;;;;20.33;16.40;;;;;;;;;;731122;187;1017292;-79
2023/06/08 02:24:56;;;;;;;20.20;16.50;;;;;;;;;;736145;188;913418;-80
2023/06/08 02:27:22;;;;;;;25.80;16.67;;;;;;;;;;732018;188;916664;-79
2023/06/08 02:29:47;;;;;;;23.08;15.80;;;;;;;;;;730300;188;937703;-79
2023/06/08 02:32:13;;;;;;;25.90;15.90;;;;;;;;;;736230;187;940162;-79
2023/06/08 02:34:39;;;;;;;20.13;16.27;;;;;;;;;;733677;187;914746;-79
2023/06/08 02:37:05;;;;;;;24.73;16.97;;;;;;;;;;734048;187;920423;-79
2023/06/08 02:39:31;;;;;;;23.90;16.23;;;;;;;;;;734559;187;944550;-79
2023/06/08 02:41:57;;;;;;;20.63;16.50;;;;;;;;;;743179;188;933944;-79
2023/06/08 02:44:23;;;;;;;20.33;15.57;;;;;;;;;;736296;187;925210;-80
2023/06/08 02:46:48;;;;;;;21.93;16.20;;;;;;;;;;732212;188;925921;-79
2023/06/08 02:49:14;;;;;;;23.43;16.10;;;;;;;;;;740265;190;916865;-80
2023/06/08 02:51:40;;;;;;;26.33;15.13;;;;;;;;;;733695;186;921903;-80
2023/06/08 02:54:06;;;;;;;18.95;16.02;;;;;;;;;;736443;187;916543;-80
2023/06/08 02:56:32;;;;;;;18.23;15.00;;;;;;;;;;736452;189;918471;-80
2023/06/08 02:58:58;;;;;;;18.97;15.77;;;;;;;;;;734327;189;926849;-80
2023/06/08 03:01:25;;;;;;;20.90;15.23;;;;;;;;;;736691;179;918646;-74
2023/06/08 03:03:51;;;;;;;20.20;15.33;;;;;;;;;;779862;176;1225401;-73
2023/06/08 03:06:17;;;;;;;23.97;16.10;;;;;;;;;;790123;177;806563;-74
2023/06/08 03:08:43;;;;;;;21.43;16.00;;;;;;;;;;773171;177;916533;-79
2023/06/08 03:11:09;;;;;;;19.73;16.57;;;;;;;;;;768979;181;918839;-79
2023/06/08 03:13:35;;;;;;;20.00;15.27;;;;;;;;;;770023;181;847049;-79
2023/06/08 03:16:01;;;;;;;17.20;15.27;;;;;;;;;;768612;180;1062608;-79
2023/06/08 03:18:26;;;;;;;20.90;17.77;;;;;;;;;;769406;181;924221;-79
2023/06/08 03:20:52;;;;;;;71.10;49.63;;;;;;;;;;774657;180;924845;-79
2023/06/08 03:23:20;;;;;;;28.77;24.43;;;;;;;;;;772394;180;920019;-80
2023/06/08 03:25:48;;;;;;;48.22;43.08;;;;;;;;;;768244;180;913565;-79
2023/06/08 03:28:11;;;;;;;28.48;24.10;;;;;;;;;;771571;181;1007419;-80
2023/06/08 03:30:36;;;;;;;38.83;34.80;;;;;;;;;;772345;180;1024004;-80
2023/06/08 03:33:05;;;;;;;22.97;18.90;;;;;;;;;;770418;181;917010;-80
2023/06/08 03:35:28;;;;;;;24.50;18.97;;;;;;;;;;768820;181;939452;-80
2023/06/08 03:37:54;;;;;;;21.90;18.83;;;;;;;;;;773724;180;872538;-80
2023/06/08 03:40:20;;;;;;;27.60;19.13;;;;;;;;;;768629;181;910715;-80
2023/06/08 03:42:46;;;;;;;25.07;18.40;;;;;;;;;;767228;180;1021288;-79
2023/06/08 03:45:12;;;;;;;34.83;20.20;;;;;;;;;;773789;181;919387;-80
2023/06/08 03:47:38;;;;;;;23.20;17.77;;;;;;;;;;767339;179;893385;-79
2023/06/08 03:50:04;;;;;;;27.93;20.60;;;;;;;;;;769980;180;918941;-79
2023/06/08 03:52:31;;;;;;;22.30;18.43;;;;;;;;;;770447;179;913117;-78
2023/06/08 03:54:56;;;;;;;21.50;18.43;;;;;;;;;;772237;181;905692;-79
2023/06/08 03:57:22;;;;;;;53.07;39.97;;;;;;;;;;771222;180;849012;-79
2023/06/08 03:59:48;;;;;;;88.43;52.47;;;;;;;;;;769225;179;819616;-79
2023/06/08 04:02:14;;;;;;;23.13;19.33;;;;;;;;;;776457;181;920699;-80
2023/06/08 04:04:40;;;;;;;28.47;20.83;;;;;;;;;;774348;180;920162;-79
2023/06/08 04:07:06;;;;;;;23.40;18.23;;;;;;;;;;773629;179;889385;-80
2023/06/08 04:09:31;;;;;;;30.57;20.43;;;;;;;;;;774872;181;920252;-80
2023/06/08 04:11:57;;;;;;;23.65;18.65;;;;;;;;;;772107;179;873591;-80
2023/06/08 04:14:23;;;;;;;26.30;19.70;;;;;;;;;;769446;180;918612;-79
2023/06/08 04:16:49;;;;;;;30.07;21.90;;;;;;;;;;777090;180;810234;-79
2023/06/08 04:19:15;;;;;;;30.67;26.23;;;;;;;;;;769556;179;1036974;-79
2023/06/08 04:21:42;;;;;;;31.20;25.63;;;;;;;;;;772747;180;816168;-80
2023/06/08 04:24:07;;;;;;;45.63;31.50;;;;;;;;;;770273;181;946327;-80
2023/06/08 04:26:33;;;;;;;34.30;26.43;;;;;;;;;;775861;181;922246;-79
2023/06/08 04:28:58;;;;;;;79.17;51.03;;;;;;;;;;771064;180;922594;-78
2023/06/08 04:31:25;;;;;;;79.60;54.30;;;;;;;;;;770514;180;919974;-80
2023/06/08 04:33:50;;;;;;;48.03;33.50;;;;;;;;;;774026;179;920049;-79
2023/06/08 04:36:16;;;;;;;32.67;26.40;;;;;;;;;;772088;179;749433;-78
2023/06/08 04:38:42;;;;;;;33.90;26.35;;;;;;;;;;772092;180;918775;-80
2023/06/08 04:41:08;;;;;;;39.77;27.27;;;;;;;;;;775484;179;917986;-80
2023/06/08 04:43:34;;;;;;;39.17;28.07;;;;;;;;;;757363;180;917356;-73
2023/06/08 04:46:01;;;;;;;48.80;28.00;;;;;;;;;;750854;179;919046;-73
2023/06/08 04:48:27;;;;;;;41.07;25.97;;;;;;;;;;763186;179;918607;-59
2023/06/08 04:50:52;;;;;;;43.07;28.20;;;;;;;;;;793733;175;845682;-59
2023/06/08 04:53:21;;;;;;;41.73;28.97;;;;;;;;;;789540;176;896679;-59
2023/06/08 04:55:45;;;;;;;49.50;30.80;;;;;;;;;;772282;180;918350;-59
2023/06/08 04:58:11;;;;;;;50.13;30.60;;;;;;;;;;789438;175;617941;-59
2023/06/08 05:00:36;;;;;;;57.33;33.60;;;;;;;;;;783155;174;619097;-60
2023/06/08 05:03:02;;;;;;;53.17;29.70;;;;;;;;;;782288;177;917595;-59
2023/06/08 05:05:27;;;;;;;48.67;30.83;;;;;;;;;;785361;176;818569;-59
2023/06/08 05:07:53;;;;;;;60.43;32.60;;;;;;;;;;777804;174;919222;-60
2023/06/08 05:10:19;;;;;;;53.87;28.47;;;;;;;;;;782253;174;918148;-61
2023/06/08 05:12:45;;;;;;;48.87;30.30;;;;;;;;;;780997;175;918121;-60
2023/06/08 05:15:11;;;;;;;54.27;29.30;;;;;;;;;;791537;173;917265;-61
2023/06/08 05:17:37;;;;;;;43.70;31.73;;;;;;;;;;780375;175;913748;-62
2023/06/08 05:20:03;;;;;;;47.13;31.40;;;;;;;;;;774523;175;901669;-61
2023/06/08 05:22:29;;;;;;;55.73;32.40;;;;;;;;;;783442;173;917706;-59
2023/06/08 05:24:55;;;;;;;51.63;33.07;;;;;;;;;;779106;175;917290;-60
2023/06/08 05:27:20;;;;;;;52.63;30.33;;;;;;;;;;779821;178;938792;-60
2023/06/08 05:29:46;;;;;;;53.07;33.83;;;;;;;;;;788704;176;916202;-61
2023/06/08 05:32:12;;;;;;;58.40;30.27;;;;;;;;;;780117;177;816630;-63
2023/06/08 05:34:38;;;;;;;49.37;30.40;;;;;;;;;;782630;175;926721;-60
2023/06/08 05:37:05;;;;;;;54.40;29.87;;;;;;;;;;784787;174;919356;-60
2023/06/08 05:39:30;;;;;;;50.50;30.50;;;;;;;;;;778324;174;919586;-61
2023/06/08 05:41:56;;;;;;;52.83;30.97;;;;;;;;;;777637;177;922666;-60
2023/06/08 05:44:22;;;;;;;50.97;30.17;;;;;;;;;;776502;176;920356;-60
2023/06/08 05:46:48;;;;;;;44.77;28.53;;;;;;;;;;785752;174;853327;-60
2023/06/08 05:49:14;;;;;;;47.40;29.70;;;;;;;;;;777148;174;919783;-61
2023/06/08 05:51:39;;;;;;;48.95;31.00;;;;;;;;;;781945;176;909274;-60
2023/06/08 05:54:05;;;;;;;47.50;30.30;;;;;;;;;;786587;176;815834;-60
2023/06/08 05:56:32;;;;;;;46.60;29.23;;;;;;;;;;783414;175;818308;-62
2023/06/08 05:58:57;;;;;;;49.33;30.73;;;;;;;;;;778325;176;922933;-61
2023/06/08 06:01:23;;;;;;;44.20;30.70;;;;;;;;;;786663;174;915913;-60
2023/06/08 06:03:50;;;;;;;45.67;27.73;;;;;;;;;;783199;174;919909;-62
2023/06/08 06:06:16;;;;;;;45.97;29.87;;;;;;;;;;778489;175;875372;-60
2023/06/08 06:08:40;;;;;;;49.70;27.37;;;;;;;;;;777448;175;918803;-62
2023/06/08 06:11:06;;;;;;;47.97;26.90;;;;;;;;;;784006;176;919515;-61
2023/06/08 06:13:32;;;;;;;48.97;30.30;;;;;;;;;;779906;174;916578;-62
2023/06/08 06:15:58;;;;;;;52.93;32.50;;;;;;;;;;781547;176;919365;-61
2023/06/08 06:18:24;;;;;;;51.50;32.33;;;;;;;;;;784580;175;918424;-61
2023/06/08 06:20:50;;;;;;;47.60;32.97;;;;;;;;;;787494;177;921206;-62
2023/06/08 06:23:15;;;;;;;54.80;32.63;;;;;;;;;;784586;174;919782;-61
2023/06/08 06:25:41;;;;;;;52.13;33.77;;;;;;;;;;777298;178;918506;-62
2023/06/08 06:28:07;;;;;;;50.47;32.90;;;;;;;;;;788401;175;915947;-63
2023/06/08 06:30:33;;;;;;;58.23;36.40;;;;;;;;;;783147;173;932143;-62
2023/06/08 06:32:59;;;;;;;57.53;34.87;;;;;;;;;;780914;174;917955;-61
2023/06/08 06:35:25;;;;;;;50.20;34.53;;;;;;;;;;783651;175;914758;-64
2023/06/08 06:37:53;;;;;;;48.77;33.37;;;;;;;;;;779894;177;878539;-63
2023/06/08 06:40:16;;;;;;;50.10;34.60;;;;;;;;;;776935;174;939386;-63
2023/06/08 06:42:42;;;;;;;57.80;36.20;;;;;;;;;;789619;177;816825;-61
2023/06/08 06:45:11;;;;;;;49.60;34.37;;;;;;;;;;768230;179;1021389;-64
2023/06/08 06:47:34;;;;;;;49.10;32.93;;;;;;;;;;767709;179;919618;-61
2023/06/08 06:50:00;;;;;;;56.23;34.90;;;;;;;;;;776885;179;915579;-61
2023/06/08 06:52:26;;;;;;;55.77;37.50;;;;;;;;;;778495;174;1009749;-61
2023/06/08 06:54:52;;;;;;;45.93;33.40;;;;;;;;;;782026;174;917486;-63
2023/06/08 06:57:18;;;;;;;54.63;33.27;;;;;;;;;;781170;176;816790;-61
2023/06/08 06:59:45;;;;;;;49.77;35.00;;;;;;;;;;781544;174;918554;-64
2023/06/08 07:02:09;;;;;;;44.43;30.87;;;;;;;;;;779362;174;921372;-63
2023/06/08 07:04:35;;;;;;;52.90;34.50;;;;;;;;;;778401;175;919672;-61
2023/06/08 07:07:03;;;;;;;43.13;31.10;;;;;;;;;;786887;176;925378;-61
2023/06/08 07:09:27;;;;;;;43.20;30.13;;;;;;;;;;786768;174;873681;-61
2023/06/08 07:11:53;;;;;;;39.50;29.20;;;;;;;;;;776187;178;866853;-61
2023/06/08 07:14:19;;;;;;;34.10;26.03;;;;;;;;;;780414;174;922703;-61
2023/06/08 07:16:45;;;;;;;36.58;26.98;;;;;;;;;;776247;178;919881;-62
2023/06/08 07:19:11;;;;;;;36.00;26.80;;;;;;;;;;774996;180;922587;-64
2023/06/08 07:21:39;;;;;;;35.97;27.23;;;;;;;;;;776307;179;971792;-61
2023/06/08 07:24:03;;;;;;;39.63;27.87;;;;;;;;;;769485;180;918945;-64
2023/06/08 07:26:29;;;;;;;34.87;27.57;;;;;;;;;;768895;180;816235;-65
2023/06/08 07:28:55;;;;;;;36.43;28.03;;;;;;;;;;771434;179;917817;-62
2023/06/08 07:31:22;;;;;;;34.10;27.00;;;;;;;;;;780398;176;882797;-62
2023/06/08 07:33:47;;;;;;;30.57;23.20;;;;;;;;;;779963;174;918877;-64
2023/06/08 07:36:13;;;;;;;36.20;25.90;;;;;;;;;;781186;176;816612;-61
2023/06/08 07:38:38;;;;;;;33.03;23.50;;;;;;;;;;784355;178;919202;-65
2023/06/08 07:41:04;;;;;;;31.93;25.07;;;;;;;;;;786287;175;919304;-66
2023/06/08 07:43:30;;;;;;;39.58;26.10;;;;;;;;;;781175;176;868690;-65
2023/06/08 07:45:56;;;;;;;33.67;26.07;;;;;;;;;;787072;175;817093;-63
2023/06/08 07:48:22;;;;;;;34.80;24.00;;;;;;;;;;782252;174;919978;-61
2023/06/08 07:50:48;;;;;;;31.30;22.03;;;;;;;;;;780724;176;863072;-64
2023/06/08 07:53:14;;;;;;;28.83;20.90;;;;;;;;;;782021;176;874090;-62
2023/06/08 07:55:39;;;;;;;34.60;21.93;;;;;;;;;;785165;176;841619;-65
2023/06/08 07:58:05;;;;;;;26.77;18.53;;;;;;;;;;779943;177;819268;-65
2023/06/08 08:00:31;;;;;;;21.70;16.27;;;;;;;;;;780711;174;919664;-61
2023/06/08 08:02:57;;;;;;;24.70;16.33;;;;;;;;;;787339;177;819301;-64
2023/06/08 08:05:23;;;;;;;18.70;14.40;;;;;;;;;;781550;174;919228;-64
2023/06/08 08:07:49;;;;;;;19.23;14.60;;;;;;;;;;781487;178;872043;-65
2023/06/08 08:10:15;;;;;;;24.00;14.80;;;;;;;;;;787305;175;913616;-61
2023/06/08 08:12:42;;;;;;;19.10;14.90;;;;;;;;;;783945;174;916578;-62
2023/06/08 08:15:07;;;;;;;20.60;14.13;;;;;;;;;;773973;176;918467;-65
2023/06/08 08:17:32;;;;;;;18.70;14.77;;;;;;;;;;780949;176;917519;-68
2023/06/08 08:19:58;;;;;;;18.10;14.10;;;;;;;;;;779194;177;919243;-62
2023/06/08 08:22:24;;;;;;;15.07;12.47;;;;;;;;;;781151;175;814793;-62
2023/06/08 08:24:50;;;;;;;14.60;12.40;;;;;;;;;;778833;177;1024087;-65
2023/06/08 08:27:16;;;;;;;16.23;10.63;;;;;;;;;;787901;176;814781;-61
2023/06/08 08:29:42;;;;;;;18.83;13.33;;;;;;;;;;778756;176;1021916;-66
2023/06/08 08:32:08;;;;;;;16.50;11.00;;;;;;;;;;779456;176;815776;-67
2023/06/08 08:34:33;;;;;;;13.40;9.93;;;;;;;;;;773888;177;918967;-62
2023/06/08 08:36:59;;;;;;;13.83;8.20;;;;;;;;;;781561;178;919475;-67
2023/06/08 08:39:25;;;;;;;12.00;7.50;;;;;;;;;;781519;176;919824;-61
2023/06/08 08:41:53;;;;;;;13.63;9.77;;;;;;;;;;780350;177;914466;-63
2023/06/08 08:44:18;;;;;;;12.23;9.20;;;;;;;;;;776805;176;817507;-62
2023/06/08 08:46:44;;;;;;;13.13;8.20;;;;;;;;;;780503;175;898937;-67
2023/06/08 08:49:15;;;;;;;10.70;7.15;;;;;;;;;;775240;175;817708;-63
2023/06/08 08:51:38;;;;;;;12.77;9.27;;;;;;;;;;776437;179;917870;-61
2023/06/08 08:54:04;;;;;;;12.00;8.25;;;;;;;;;;775753;179;919066;-62
2023/06/08 08:56:35;;;;;;;11.33;7.83;;;;;;;;;;771152;179;918145;-67
2023/06/08 08:58:56;;;;;;;11.47;8.27;;;;;;;;;;779857;179;912376;-62
2023/06/08 09:01:24;;;;;;;14.70;8.43;;;;;;;;;;773219;179;918765;-67
2023/06/08 09:03:48;;;;;;;11.20;7.80;;;;;;;;;;774107;179;918068;-63
2023/06/08 09:06:14;;;;;;;12.43;8.00;;;;;;;;;;772888;179;1071779;-67
2023/06/08 09:08:40;;;;;;;9.27;6.30;;;;;;;;;;778605;179;765832;-64
2023/06/08 09:11:06;;;;;;;11.57;7.97;;;;;;;;;;771343;180;918259;-67
2023/06/08 09:13:32;;;;;;;22.23;6.40;;;;;;;;;;770139;179;918749;-62
2023/06/08 09:16:08;;;;;;;12.47;7.63;;;;;;;;;;779066;180;928906;-68
2023/06/08 09:18:33;;;;;;;13.40;8.77;;;;;;;;;;775701;180;812808;-69
2023/06/08 09:20:59;;;;;;;15.20;9.40;;;;;;;;;;774140;175;922243;-70
2023/06/08 09:23:26;;;;;;;12.02;8.52;;;;;;;;;;785820;176;917405;-70
2023/06/08 09:25:52;;;;;;;10.70;8.60;;;;;;;;;;791826;174;922147;-64
2023/06/08 09:28:24;;;;;;;13.70;8.50;;;;;;;;;;779478;174;921831;-69
2023/06/08 09:30:48;;;;;;;16.00;10.50;;;;;;;;;;780308;175;920176;-64
2023/06/08 09:33:16;;;;;;;14.40;9.20;;;;;;;;;;782423;177;892633;-64
2023/06/08 09:35:42;;;;;;;16.77;12.40;;;;;;;;;;790487;174;908135;-65
2023/06/08 09:38:16;;;;;;;12.40;10.47;;;;;;;;;;780448;175;918807;-64
2023/06/08 09:40:40;;;;;;;20.10;12.00;;;;;;;;;;778180;176;915410;-70
2023/06/08 09:43:06;;;;;;;14.73;10.03;;;;;;;;;;782107;176;909118;-70
2023/06/08 09:45:31;;;;;;;25.70;19.57;;;;;;;;;;781764;174;919084;-65
2023/06/08 09:48:04;;;;;;;14.57;8.67;;;;;;;;;;778901;176;920454;-69
2023/06/08 09:50:30;;;;;;;11.90;8.40;;;;;;;;;;777560;175;919615;-70
2023/06/08 09:52:56;;;;;;;16.10;12.30;;;;;;;;;;785513;175;921312;-70
2023/06/08 09:55:22;;;;;;;9.20;8.20;;;;;;;;;;786035;176;922824;-66
2023/06/08 09:57:48;;;;;;;11.20;8.87;;;;;;;;;;768648;179;919302;-64
2023/06/08 10:00:17;;;;;;;16.23;9.40;;;;;;;;;;771245;180;920626;-65
2023/06/08 10:02:43;;;;;;;10.40;8.10;;;;;;;;;;775697;176;1019595;-72
2023/06/08 10:05:09;;;;;;;11.03;9.50;;;;;;;;;;780652;173;818181;-69
2023/06/08 10:07:35;;;;;;;13.60;9.33;;;;;;;;;;784515;177;919232;-64
2023/06/08 10:10:04;;;;;;;12.87;8.80;;;;;;;;;;776155;179;809167;-70
2023/06/08 10:12:28;;;;;;;11.33;8.17;;;;;;;;;;775151;179;817742;-70
2023/06/08 10:14:54;;;;;;;10.63;8.43;;;;;;;;;;772359;179;922295;-73
2023/06/08 10:17:20;;;;;;;11.77;8.53;;;;;;;;;;779484;179;916986;-75
2023/06/08 10:19:46;;;;;;;11.70;8.67;;;;;;;;;;781334;177;917848;-70
2023/06/08 10:22:12;;;;;;;8.97;7.40;;;;;;;;;;778911;174;816620;-69
2023/06/08 10:24:37;;;;;;;9.40;8.40;;;;;;;;;;779132;175;950038;-65
2023/06/08 10:27:08;;;;;;;10.30;7.97;;;;;;;;;;780175;176;915136;-64
2023/06/08 10:29:33;;;;;;;9.13;7.83;;;;;;;;;;766163;179;921299;-65
2023/06/08 10:31:59;;;;;;;8.50;7.60;;;;;;;;;;776347;176;916134;-66
2023/06/08 10:34:25;;;;;;;10.80;8.03;;;;;;;;;;782764;174;918477;-71
2023/06/08 10:36:50;;;;;;;8.80;6.90;;;;;;;;;;782043;177;919823;-69
2023/06/08 10:39:17;;;;;;;9.07;7.57;;;;;;;;;;783508;174;919282;-67
2023/06/08 10:41:43;;;;;;;10.07;7.50;;;;;;;;;;787284;176;815856;-66
2023/06/08 10:44:24;;;;;;;9.77;8.07;;;;;;;;;;779945;177;920763;-71
2023/06/08 10:46:49;;;;;;;13.77;10.77;;;;;;;;;;780199;176;919591;-66
2023/06/08 10:49:15;;;;;;;11.00;8.27;;;;;;;;;;778884;177;920637;-70
2023/06/08 10:51:41;;;;;;;12.17;9.60;;;;;;;;;;776843;174;917490;-65
2023/06/08 10:54:09;;;;;;;11.87;9.30;;;;;;;;;;784575;174;920170;-63
2023/06/08 10:56:33;;;;;;;11.80;10.00;;;;;;;;;;779899;174;923725;-65
2023/06/08 10:58:59;;;;;;;7.77;6.73;;;;;;;;;;779173;176;918683;-72
2023/06/08 11:01:25;;;;;;;10.43;7.90;;;;;;;;;;786975;176;918490;-71
2023/06/08 11:03:50;;;;;;;10.30;7.03;;;;;;;;;;772919;179;871513;-65
2023/06/08 11:06:16;;;;;;;11.27;5.40;;;;;;;;;;772312;176;849774;-72
2023/06/08 11:08:42;;;;;;;6.55;5.85;;;;;;;;;;784639;175;853661;-64
2023/06/08 11:11:08;;;;;;;7.10;6.40;;;;;;;;;;782543;175;817655;-72
2023/06/08 11:13:34;;;;;;;7.80;6.60;;;;;;;;;;781653;176;919144;-72
2023/06/08 11:16:00;;;;;;;8.93;6.40;;;;;;;;;;783933;176;919122;-72
2023/06/08 11:18:26;;;;;;;6.80;5.53;;;;;;;;;;790636;174;764816;-64
2023/06/08 11:20:52;;;;;;;8.53;7.00;;;;;;;;;;779818;174;918656;-64
2023/06/08 11:23:17;;;;;;;7.93;6.13;;;;;;;;;;777819;175;918560;-64
2023/06/08 11:25:44;;;;;;;9.47;6.17;;;;;;;;;;786954;176;816024;-65
2023/06/08 11:28:10;;;;;;;8.87;6.13;;;;;;;;;;778839;176;919511;-72
2023/06/08 11:30:35;;;;;;;7.37;5.80;;;;;;;;;;777642;177;918782;-69
2023/06/08 11:33:01;;;;;;;6.33;5.53;;;;;;;;;;784388;178;901501;-65
2023/06/08 11:35:27;;;;;;;6.90;4.83;;;;;;;;;;784302;174;919339;-64
2023/06/08 11:37:53;;;;;;;12.10;5.40;;;;;;;;;;784527;177;816524;-71
2023/06/08 11:40:19;;;;;;;6.57;5.83;;;;;;;;;;782655;176;919285;-69
2023/06/08 11:42:45;;;;;;;8.27;6.87;;;;;;;;;;783210;174;918639;-70
2023/06/08 11:45:11;;;;;;;7.37;5.77;;;;;;;;;;779959;174;919490;-64
2023/06/08 11:47:37;;;;;;;9.93;5.73;;;;;;;;;;779759;177;917673;-76
2023/06/08 11:50:03;;;;;;;8.97;5.73;;;;;;;;;;785973;175;919938;-65
2023/06/08 11:52:29;;;;;;;9.17;6.10;;;;;;;;;;777664;177;921933;-64
2023/06/08 11:54:55;;;;;;;6.70;5.70;;;;;;;;;;775521;174;929629;-70
2023/06/08 11:57:21;;;;;;;8.23;5.40;;;;;;;;;;783498;176;818059;-66
2023/06/08 11:59:46;;;;;;;7.70;5.80;;;;;;;;;;783856;174;814238;-74
2023/06/08 12:02:12;;;;;;;11.53;5.47;;;;;;;;;;782584;175;918777;-64
2023/06/08 12:04:38;;;;;;;8.30;4.90;;;;;;;;;;784559;176;920442;-72
2023/06/08 12:07:07;;;;;;;7.37;5.83;;;;;;;;;;778428;177;914288;-75
2023/06/08 12:09:32;;;;;;;7.40;5.67;;;;;;;;;;777638;176;919811;-69
2023/06/08 12:11:58;;;;;;;8.70;5.07;;;;;;;;;;778522;175;919213;-76
2023/06/08 12:14:23;;;;;;;8.07;5.87;;;;;;;;;;783195;175;919064;-63
2023/06/08 12:16:49;;;;;;;6.43;5.03;;;;;;;;;;780441;175;916496;-64
2023/06/08 12:19:15;;;;;;;6.43;5.07;;;;;;;;;;780703;174;919444;-64
2023/06/08 12:21:41;;;;;;;8.93;5.47;;;;;;;;;;787154;176;917491;-70
2023/06/08 12:24:07;;;;;;;9.60;5.73;;;;;;;;;;780792;177;918900;-74
2023/06/08 12:26:33;;;;;;;6.57;4.90;;;;;;;;;;782552;173;922180;-63
2023/06/08 12:29:04;;;;;;;5.10;4.60;;;;;;;;;;785569;176;915998;-64
2023/06/08 12:31:28;;;;;;;6.67;4.87;;;;;;;;;;780186;176;815528;-71
2023/06/08 12:33:54;;;;;;;5.57;4.70;;;;;;;;;;782218;174;918848;-67
2023/06/08 12:36:20;;;;;;;7.17;4.80;;;;;;;;;;777669;176;917821;-69
2023/06/08 12:38:46;;;;;;;5.57;4.60;;;;;;;;;;786888;176;819108;-64
2023/06/08 12:41:12;;;;;;;8.80;4.73;;;;;;;;;;780726;176;919349;-63
2023/06/08 12:43:43;;;;;;;5.53;4.10;;;;;;;;;;776233;174;918207;-68
2023/06/08 12:46:03;;;;;;;7.43;4.90;;;;;;;;;;785122;174;958861;-63
2023/06/08 12:48:29;;;;;;;11.10;4.50;;;;;;;;;;782404;177;919522;-71
2023/06/08 12:50:57;;;;;;;6.00;4.60;;;;;;;;;;779453;177;919310;-69
2023/06/08 12:53:21;;;;;;;4.90;4.40;;;;;;;;;;780193;174;912422;-63
2023/06/08 12:55:47;;;;;;;4.83;3.43;;;;;;;;;;787277;174;920774;-63
2023/06/08 12:58:16;;;;;;;7.97;4.00;;;;;;;;;;780422;174;920517;-69
2023/06/08 13:00:38;;;;;;;5.43;4.63;;;;;;;;;;776558;174;919961;-62
2023/06/08 13:03:04;;;;;;;5.50;4.10;;;;;;;;;;785248;174;921538;-72
2023/06/08 13:05:30;;;;;;;8.07;4.57;;;;;;;;;;779382;177;855266;-63
2023/06/08 13:07:56;;;;;;;6.00;4.70;;;;;;;;;;779145;176;919120;-71
2023/06/08 13:10:22;;;;;;;5.03;4.10;;;;;;;;;;785177;175;918827;-63
2023/06/08 13:12:48;;;;;;;6.93;4.40;;;;;;;;;;779746;175;902084;-62
2023/06/08 13:15:13;;;;;;;9.20;5.47;;;;;;;;;;781971;175;918787;-64
2023/06/08 13:17:40;;;;;;;6.60;4.90;;;;;;;;;;780228;176;855919;-72
2023/06/08 13:20:06;;;;;;;5.87;4.20;;;;;;;;;;781116;176;918771;-64
2023/06/08 13:22:32;;;;;;;5.03;4.47;;;;;;;;;;778916;176;914936;-63
2023/06/08 13:24:58;;;;;;;7.93;4.03;;;;;;;;;;779564;174;919642;-64
2023/06/08 13:27:24;;;;;;;7.90;4.87;;;;;;;;;;782372;174;918724;-63
2023/06/08 13:29:49;;;;;;;6.67;4.13;;;;;;;;;;776878;174;920106;-64
2023/06/08 13:32:16;;;;;;;6.90;4.80;;;;;;;;;;777449;179;918853;-63
2023/06/08 13:34:41;;;;;;;5.30;4.63;;;;;;;;;;783192;178;920071;-69
2023/06/08 13:37:07;;;;;;;6.83;3.93;;;;;;;;;;780522;178;816136;-69
2023/06/08 13:39:33;;;;;;;9.50;5.20;;;;;;;;;;785096;174;944091;-63
2023/06/08 13:41:59;;;;;;;9.90;4.70;;;;;;;;;;787724;176;919412;-71
2023/06/08 13:44:25;;;;;;;6.40;5.33;;;;;;;;;;777542;178;885955;-65
2023/06/08 13:46:50;;;;;;;6.20;4.50;;;;;;;;;;779366;174;908817;-64
2023/06/08 13:49:17;;;;;;;5.83;3.97;;;;;;;;;;780121;174;914822;-69
2023/06/08 13:51:42;;;;;;;5.80;3.97;;;;;;;;;;786412;177;920350;-64
2023/06/08 13:54:08;;;;;;;9.13;4.70;;;;;;;;;;779145;174;919516;-63
2023/06/08 13:56:34;;;;;;;7.97;3.93;;;;;;;;;;777844;174;921468;-63
2023/06/08 13:59:00;;;;;;;5.50;3.70;;;;;;;;;;786810;177;920784;-63
2023/06/08 14:01:25;;;;;;;6.03;4.10;;;;;;;;;;784116;177;921240;-64
2023/06/08 14:03:51;;;;;;;6.03;4.57;;;;;;;;;;781237;176;919377;-66